createdAt,value
2018-06-19T00:00:39.904Z,3.83
2018-06-19T00:03:08.410Z,2.83
2018-06-19T00:05:37.523Z,2.10
2018-06-19T00:08:06.716Z,2.20
2018-06-19T00:10:35.338Z,1.77
2018-06-19T00:13:04.926Z,1.83
2018-06-19T00:15:33.472Z,2.37
2018-06-19T00:18:05.562Z,4.00
2018-06-19T00:20:34.062Z,3.47
2018-06-19T00:23:03.124Z,3.70
2018-06-19T00:25:31.706Z,2.87
2018-06-19T00:28:00.218Z,4.23
2018-06-19T00:30:28.700Z,3.03
2018-06-19T00:32:57.173Z,2.50
2018-06-19T00:35:25.635Z,4.37
2018-06-19T00:37:54.117Z,2.60
2018-06-19T00:40:23.170Z,4.13
2018-06-19T00:42:51.729Z,3.57
2018-06-19T00:45:20.206Z,3.80
2018-06-19T00:47:48.812Z,4.93
2018-06-19T00:50:17.336Z,3.30
2018-06-19T00:52:45.883Z,3.27
2018-06-19T00:55:14.969Z,4.77
2018-06-19T00:57:43.570Z,2.90
2018-06-19T01:00:12.193Z,5.10
2018-06-19T01:02:40.682Z,4.40
2018-06-19T01:05:09.398Z,2.23
2018-06-19T01:07:37.954Z,2.90
2018-06-19T01:10:06.407Z,4.70
2018-06-19T01:12:34.946Z,2.37
2018-06-19T01:15:03.522Z,3.73
2018-06-19T01:17:32.710Z,3.67
2018-06-19T01:20:01.209Z,3.80
2018-06-19T01:22:29.701Z,3.70
2018-06-19T01:24:58.761Z,3.77
2018-06-19T01:27:27.367Z,3.33
2018-06-19T01:29:55.819Z,4.27
2018-06-19T01:32:24.374Z,3.90
2018-06-19T01:34:52.794Z,5.10
2018-06-19T01:37:21.234Z,4.93
2018-06-19T01:39:49.703Z,4.50
2018-06-19T01:42:18.281Z,2.87
2018-06-19T01:44:46.733Z,3.40
2018-06-19T01:47:15.220Z,3.90
2018-06-19T01:49:43.787Z,5.00
2018-06-19T01:52:12.290Z,2.67
2018-06-19T01:54:40.837Z,2.00
2018-06-19T01:57:11.041Z,2.17
2018-06-19T01:59:39.650Z,2.97
2018-06-19T02:02:08.141Z,2.00
2018-06-19T02:04:37.387Z,2.07
2018-06-19T02:07:06.155Z,2.50
2018-06-19T02:09:34.699Z,3.90
2018-06-19T02:12:03.143Z,2.90
2018-06-19T02:14:31.782Z,3.57
2018-06-19T02:17:00.282Z,3.30
2018-06-19T02:19:28.869Z,2.20
2018-06-19T02:21:57.362Z,3.03
2018-06-19T02:24:26.553Z,2.70
2018-06-19T02:26:55.171Z,3.70
2018-06-19T02:29:23.642Z,2.50
2018-06-19T02:31:52.125Z,4.77
2018-06-19T02:34:20.572Z,4.30
2018-06-19T02:36:50.675Z,4.00
2018-06-19T02:39:19.158Z,5.10
2018-06-19T02:41:47.720Z,3.60
2018-06-19T02:44:16.237Z,3.50
2018-06-19T02:46:44.720Z,4.20
2018-06-19T02:49:13.171Z,6.90
2018-06-19T02:51:41.650Z,7.60
2018-06-19T02:54:10.105Z,6.83
2018-06-19T02:56:38.602Z,6.40
2018-06-19T02:59:07.102Z,6.47
2018-06-19T03:01:35.631Z,6.70
2018-06-19T03:04:04.826Z,6.37
2018-06-19T03:06:34.944Z,7.50
2018-06-19T03:09:03.620Z,3.60
2018-06-19T03:11:32.117Z,6.90
2018-06-19T03:14:00.654Z,6.80
2018-06-19T03:16:29.237Z,6.97
2018-06-19T03:18:57.830Z,6.40
2018-06-19T03:21:26.339Z,5.33
2018-06-19T03:23:54.915Z,3.90
2018-06-19T03:26:23.406Z,5.00
2018-06-19T03:28:51.886Z,3.83
2018-06-19T03:31:20.378Z,4.40
2018-06-19T03:33:48.906Z,5.90
2018-06-19T03:36:18.279Z,4.73
2018-06-19T03:38:46.793Z,3.27
2018-06-19T03:41:15.930Z,5.27
2018-06-19T03:43:44.392Z,3.73
2018-06-19T03:46:12.876Z,3.03
2018-06-19T03:48:41.329Z,3.80
2018-06-19T03:51:09.785Z,3.20
2018-06-19T03:53:38.819Z,4.37
2018-06-19T03:56:07.990Z,4.73
2018-06-19T03:58:36.600Z,5.27
2018-06-19T04:01:05.258Z,4.30
2018-06-19T04:03:33.806Z,5.73
2018-06-19T04:06:02.278Z,6.23
2018-06-19T04:08:30.716Z,3.43
2018-06-19T04:10:59.228Z,2.63
2018-06-19T04:13:27.714Z,2.77
2018-06-19T04:15:56.173Z,2.37
2018-06-19T04:18:24.652Z,2.10
2018-06-19T04:20:53.170Z,2.33
2018-06-19T04:23:22.228Z,2.20
2018-06-19T04:25:50.802Z,5.30
2018-06-19T04:28:19.259Z,5.10
2018-06-19T04:30:47.783Z,4.87
2018-06-19T04:33:16.232Z,4.53
2018-06-19T04:35:44.791Z,6.27
2018-06-19T04:38:13.278Z,3.10
2018-06-19T04:40:41.694Z,4.23
2018-06-19T04:43:10.305Z,5.10
2018-06-19T04:45:38.786Z,3.10
2018-06-19T04:48:07.240Z,2.50
2018-06-19T04:50:35.807Z,2.53
2018-06-19T04:53:04.273Z,2.40
2018-06-19T04:55:32.798Z,2.03
2018-06-19T04:58:01.285Z,4.00
2018-06-19T05:00:29.870Z,3.50
2018-06-19T05:02:58.423Z,3.13
2018-06-19T05:05:26.900Z,2.60
2018-06-19T05:07:55.348Z,3.70
2018-06-19T05:10:23.929Z,3.90
2018-06-19T05:12:52.478Z,2.40
2018-06-19T05:15:21.486Z,2.93
2018-06-19T05:17:49.986Z,2.33
2018-06-19T05:20:18.522Z,3.47
2018-06-19T05:22:46.705Z,2.00
2018-06-19T05:25:15.637Z,2.50
2018-06-19T05:27:44.140Z,2.90
2018-06-19T05:30:13.084Z,2.20
2018-06-19T05:32:41.591Z,1.70
2018-06-19T05:35:10.134Z,2.40
2018-06-19T05:37:38.797Z,1.67
2018-06-19T05:40:07.348Z,3.20
2018-06-19T05:42:35.527Z,2.60
2018-06-19T05:45:04.266Z,2.20
2018-06-19T05:47:32.986Z,2.57
2018-06-19T05:50:01.606Z,1.97
2018-06-19T05:52:30.238Z,1.50
2018-06-19T05:54:58.699Z,2.57
2018-06-19T05:57:27.617Z,2.27
2018-06-19T05:59:56.062Z,3.07
2018-06-19T06:02:24.830Z,1.50
2018-06-19T06:04:53.460Z,1.43
2018-06-19T06:07:21.931Z,3.37
2018-06-19T06:09:50.546Z,2.43
2018-06-19T06:12:18.688Z,2.33
2018-06-19T06:14:47.349Z,1.60
2018-06-19T06:17:15.956Z,2.63
2018-06-19T06:19:44.518Z,1.70
2018-06-19T06:22:13.083Z,2.93
2018-06-19T06:24:41.540Z,2.70
2018-06-19T06:27:10.102Z,2.10
2018-06-19T06:29:38.579Z,2.30
2018-06-19T06:32:07.097Z,2.50
2018-06-19T06:34:35.598Z,1.43
2018-06-19T06:37:04.900Z,1.67
2018-06-19T06:39:33.389Z,2.03
2018-06-19T06:42:02.621Z,1.80
2018-06-19T06:44:31.177Z,1.90
2018-06-19T06:47:00.671Z,1.80
2018-06-19T06:49:29.781Z,1.93
2018-06-19T06:51:58.325Z,1.87
2018-06-19T06:54:26.806Z,1.97
2018-06-19T06:57:00.286Z,2.23
2018-06-19T06:59:31.007Z,2.20
2018-06-19T07:01:59.612Z,1.50
2018-06-19T07:04:28.444Z,1.40
2018-06-19T07:06:56.934Z,1.27
2018-06-19T07:09:25.444Z,2.17
2018-06-19T07:11:54.007Z,2.43
2018-06-19T07:14:22.861Z,2.53
2018-06-19T07:16:51.320Z,2.00
2018-06-19T07:19:20.643Z,2.10
2018-06-19T07:21:49.110Z,2.47
2018-06-19T07:24:17.709Z,2.00
2018-06-19T07:26:46.208Z,1.70
2018-06-19T07:29:14.682Z,1.57
2018-06-19T07:31:43.203Z,2.50
2018-06-19T07:34:11.693Z,1.90
2018-06-19T07:36:40.196Z,2.00
2018-06-19T07:39:09.648Z,2.40
2018-06-19T07:41:38.508Z,1.90
2018-06-19T07:44:07.108Z,1.97
2018-06-19T07:46:35.596Z,1.93
2018-06-19T07:49:04.795Z,1.97
2018-06-19T07:51:33.335Z,2.20
2018-06-19T07:54:02.110Z,1.57
2018-06-19T07:56:30.586Z,2.30
2018-06-19T07:58:59.089Z,1.80
2018-06-19T08:01:27.677Z,1.97
2018-06-19T08:03:56.337Z,1.90
2018-06-19T08:06:25.090Z,1.63
2018-06-19T08:08:53.895Z,1.87
2018-06-19T08:11:22.451Z,1.87
2018-06-19T08:13:50.959Z,2.37
2018-06-19T08:16:19.443Z,2.03
2018-06-19T08:18:47.958Z,1.50
2018-06-19T08:21:17.307Z,1.97
2018-06-19T08:23:45.831Z,1.60
2018-06-19T08:26:14.483Z,1.83
2018-06-19T08:28:43.040Z,1.97
2018-06-19T08:31:11.535Z,1.77
2018-06-19T08:33:40.725Z,1.53
2018-06-19T08:36:09.913Z,1.50
2018-06-19T08:38:39.078Z,1.80
2018-06-19T08:41:08.323Z,1.90
2018-06-19T08:43:36.848Z,1.93
2018-06-19T08:46:05.495Z,1.67
2018-06-19T08:48:34.693Z,1.93
2018-06-19T08:51:03.337Z,1.40
2018-06-19T08:53:31.880Z,1.70
2018-06-19T08:56:00.586Z,1.73
2018-06-19T08:58:29.159Z,1.80
2018-06-19T09:00:57.634Z,2.00
2018-06-19T09:03:26.149Z,1.93
2018-06-19T09:05:54.762Z,2.40
2018-06-19T09:08:23.286Z,1.40
2018-06-19T09:10:51.892Z,1.40
2018-06-19T09:13:20.388Z,1.80
2018-06-19T09:15:49.440Z,1.73
2018-06-19T09:18:17.978Z,1.60
2018-06-19T09:20:46.557Z,1.60
2018-06-19T09:23:15.209Z,1.57
2018-06-19T09:25:43.759Z,1.83
2018-06-19T09:28:12.309Z,1.30
2018-06-19T09:30:40.846Z,2.10
2018-06-19T09:33:09.484Z,1.47
2018-06-19T09:35:37.965Z,2.20
2018-06-19T09:38:07.523Z,2.00
2018-06-19T09:40:36.303Z,1.80
2018-06-19T09:43:04.996Z,1.60
2018-06-19T09:45:33.455Z,1.00
2018-06-19T09:48:02.186Z,1.30
2018-06-19T09:50:30.739Z,2.02
2018-06-19T09:52:59.288Z,1.35
2018-06-19T09:55:27.751Z,1.60
2018-06-19T09:57:56.357Z,1.10
2018-06-19T10:00:30.298Z,1.32
2018-06-19T10:02:58.902Z,1.85
2018-06-19T10:05:27.750Z,0.98
2018-06-19T10:07:56.365Z,1.65
2018-06-19T10:10:24.976Z,1.20
2018-06-19T10:12:53.590Z,1.07
2018-06-19T10:15:22.136Z,1.22
2018-06-19T10:17:50.845Z,1.40
2018-06-19T10:20:19.396Z,1.82
2018-06-19T10:22:47.963Z,1.90
2018-06-19T10:25:16.596Z,1.55
2018-06-19T10:27:45.169Z,1.65
2018-06-19T10:30:13.680Z,1.47
2018-06-19T10:32:42.302Z,1.50
2018-06-19T10:35:10.844Z,1.90
2018-06-19T10:37:39.407Z,1.80
2018-06-19T10:40:07.977Z,1.27
2018-06-19T10:42:36.488Z,1.30
2018-06-19T10:45:05.257Z,1.60
2018-06-19T10:47:33.965Z,1.22
2018-06-19T10:50:02.746Z,1.50
2018-06-19T10:52:31.274Z,1.70
2018-06-19T10:54:59.749Z,1.80
2018-06-19T10:57:28.602Z,1.55
2018-06-19T10:59:57.210Z,1.20
2018-06-19T11:02:25.718Z,1.67
2018-06-19T11:04:54.301Z,1.40
2018-06-19T11:07:29.356Z,1.85
2018-06-19T11:09:59.493Z,1.10
2018-06-19T11:12:28.509Z,1.00
2018-06-19T11:14:57.124Z,1.00
2018-06-19T11:17:25.774Z,1.75
2018-06-19T11:19:54.612Z,1.10
2018-06-19T11:22:23.134Z,1.40
2018-06-19T11:24:51.768Z,1.12
2018-06-19T11:27:20.278Z,1.00
2018-06-19T11:29:48.902Z,1.50
2018-06-19T11:32:17.398Z,1.80
2018-06-19T11:34:45.950Z,1.20
2018-06-19T11:37:14.461Z,1.62
2018-06-19T11:39:43.042Z,1.17
2018-06-19T11:42:11.583Z,1.90
2018-06-19T11:44:40.228Z,1.12
2018-06-19T11:47:08.635Z,1.40
2018-06-19T11:49:37.247Z,1.67
2018-06-19T11:52:05.974Z,1.75
2018-06-19T11:54:34.571Z,1.25
2018-06-19T11:57:02.985Z,1.20
2018-06-19T11:59:31.446Z,4.03
2018-06-19T12:01:59.947Z,1.60
2018-06-19T12:04:28.806Z,1.72
2018-06-19T12:06:58.024Z,1.62
2018-06-19T12:09:26.628Z,1.65
2018-06-19T12:11:55.238Z,1.50
2018-06-19T12:14:23.854Z,1.95
2018-06-19T12:16:52.387Z,1.55
2018-06-19T12:19:20.976Z,1.02
2018-06-19T12:21:49.610Z,1.30
2018-06-19T12:24:18.105Z,1.40
2018-06-19T12:26:46.845Z,1.50
2018-06-19T12:29:16.098Z,1.70
2018-06-19T12:31:44.703Z,0.88
2018-06-19T12:34:13.296Z,1.22
2018-06-19T12:36:41.975Z,1.17
2018-06-19T12:39:11.631Z,1.30
2018-06-19T12:41:43.669Z,1.35
2018-06-19T12:44:12.293Z,1.70
2018-06-19T12:46:41.488Z,1.17
2018-06-19T12:49:10.328Z,1.10
2018-06-19T12:51:58.157Z,1.60
2018-06-19T12:55:34.701Z,1.12
2018-06-19T12:58:03.831Z,1.32
2018-06-19T13:00:32.908Z,1.12
2018-06-19T13:03:12.383Z,1.30
2018-06-19T13:05:51.790Z,1.12
2018-06-19T13:08:20.509Z,1.30
2018-06-19T13:10:49.635Z,1.57
2018-06-19T13:13:30.482Z,1.80
2018-06-19T13:15:59.016Z,1.50
2018-06-19T13:18:40.763Z,1.50
2018-06-19T13:21:09.424Z,1.67
2018-06-19T13:23:38.061Z,1.50
2018-06-19T13:26:07.228Z,1.60
2018-06-19T13:29:47.051Z,1.77
2018-06-19T13:32:15.520Z,1.80
2018-06-19T13:34:44.098Z,1.40
2018-06-19T13:37:12.591Z,1.42
2018-06-19T13:39:41.558Z,1.50
2018-06-19T13:42:22.273Z,1.30
2018-06-19T13:45:03.426Z,1.15
2018-06-19T13:47:32.018Z,1.50
2018-06-19T13:50:00.778Z,1.65
2018-06-19T13:52:29.233Z,1.60
2018-06-19T13:57:12.144Z,1.40
2018-06-19T13:59:41.222Z,1.20
2018-06-19T14:02:09.698Z,1.20
2018-06-19T14:04:38.178Z,1.17
2018-06-19T14:07:06.994Z,1.47
2018-06-19T14:09:48.030Z,1.27
2018-06-19T14:12:29.577Z,1.12
2018-06-19T14:14:58.164Z,1.30
2018-06-19T14:17:26.721Z,1.80
2018-06-19T14:19:56.314Z,1.40
2018-06-19T14:22:26.228Z,1.60
2018-06-19T14:24:54.969Z,1.75
2018-06-19T14:27:23.976Z,1.57
2018-06-19T14:29:52.664Z,1.42
2018-06-19T14:32:21.399Z,1.47
2018-06-19T14:34:50.089Z,1.85
2018-06-19T14:37:18.660Z,1.50
2018-06-19T14:39:47.247Z,1.32
2018-06-19T14:42:15.823Z,1.80
2018-06-19T14:44:44.278Z,1.20
2018-06-19T14:47:12.919Z,1.40
2018-06-19T14:49:41.427Z,1.30
2018-06-19T14:52:09.878Z,1.67
2018-06-19T14:54:38.596Z,1.50
2018-06-19T14:57:07.110Z,1.30
2018-06-19T14:59:36.133Z,1.15
2018-06-19T15:02:04.724Z,1.67
2018-06-19T15:04:33.332Z,1.50
2018-06-19T15:07:01.839Z,1.15
2018-06-19T15:09:30.386Z,1.50
2018-06-19T15:11:59.048Z,0.90
2018-06-19T15:14:27.623Z,1.40
2018-06-19T15:16:56.314Z,1.20
2018-06-19T15:19:24.827Z,1.50
2018-06-19T15:21:53.311Z,1.25
2018-06-19T15:24:21.761Z,1.50
2018-06-19T15:26:50.881Z,1.67
2018-06-19T15:29:20.253Z,1.45
2018-06-19T15:31:48.742Z,2.30
2018-06-19T15:34:17.282Z,1.42
2018-06-19T15:36:45.785Z,1.20
2018-06-19T15:39:14.839Z,1.40
2018-06-19T15:41:43.898Z,1.62
2018-06-19T15:44:12.429Z,1.60
2018-06-19T15:46:41.017Z,1.30
2018-06-19T15:49:09.826Z,1.62
2018-06-19T15:51:38.443Z,1.30
2018-06-19T15:54:07.074Z,1.47
2018-06-19T15:56:35.621Z,1.57
2018-06-19T15:59:04.726Z,1.75
2018-06-19T16:01:33.274Z,1.42
2018-06-19T16:04:01.802Z,1.10
2018-06-19T16:06:30.433Z,1.12
2018-06-19T16:08:59.530Z,1.40
2018-06-19T16:11:28.135Z,1.67
2018-06-19T16:13:56.688Z,2.10
2018-06-19T16:16:25.465Z,1.50
2018-06-19T16:18:54.807Z,1.50
2018-06-19T16:21:23.403Z,2.15
2018-06-19T16:23:51.885Z,1.80
2018-06-19T16:26:20.418Z,1.82
2018-06-19T16:28:49.111Z,1.40
2018-06-19T16:31:18.386Z,1.52
2018-06-19T16:33:47.014Z,1.20
2018-06-19T16:36:15.953Z,1.40
2018-06-19T16:38:44.548Z,1.60
2018-06-19T16:41:13.276Z,1.55
2018-06-19T16:43:43.125Z,1.40
2018-06-19T16:46:11.823Z,1.90
2018-06-19T16:48:40.493Z,1.65
2018-06-19T16:51:09.054Z,1.47
2018-06-19T16:53:37.710Z,1.50
2018-06-19T16:56:06.259Z,15.80
2018-06-19T16:58:34.793Z,2.02
2018-06-19T17:01:03.850Z,1.80
2018-06-19T17:03:32.811Z,1.42
2018-06-19T17:06:01.286Z,2.50
2018-06-19T17:08:29.922Z,1.77
2018-06-19T17:10:58.624Z,2.05
2018-06-19T17:13:27.343Z,1.95
2018-06-19T17:15:55.847Z,2.27
2018-06-19T17:18:24.330Z,2.92
2018-06-19T17:20:52.888Z,2.25
2018-06-19T17:23:21.461Z,1.87
2018-06-19T17:25:50.662Z,1.72
2018-06-19T17:28:19.210Z,2.08
2018-06-19T17:30:47.682Z,1.90
2018-06-19T17:33:16.224Z,1.45
2018-06-19T17:35:44.841Z,1.98
2018-06-19T17:38:13.361Z,1.30
2018-06-19T17:40:42.463Z,1.42
2018-06-19T17:43:10.990Z,1.62
2018-06-19T17:45:39.601Z,1.60
2018-06-19T17:48:08.150Z,1.20
2018-06-19T17:50:37.357Z,1.52
2018-06-19T17:53:05.943Z,1.80
2018-06-19T17:55:34.754Z,1.90
2018-06-19T17:58:03.337Z,2.10
2018-06-19T18:00:33.325Z,2.17
2018-06-19T18:03:01.838Z,3.72
2018-06-19T18:05:30.354Z,2.42
2018-06-19T18:07:58.933Z,1.90
2018-06-19T18:10:27.569Z,1.98
2018-06-19T18:12:56.189Z,2.05
2018-06-19T18:15:24.730Z,2.20
2018-06-19T18:17:53.333Z,2.12
2018-06-19T18:20:21.975Z,2.27
2018-06-19T18:22:50.710Z,2.30
2018-06-19T18:25:19.303Z,2.10
2018-06-19T18:27:48.374Z,2.02
2018-06-19T18:30:16.974Z,2.37
2018-06-19T18:32:46.407Z,2.27
2018-06-19T18:35:14.985Z,2.45
2018-06-19T18:37:43.614Z,2.40
2018-06-19T18:40:12.225Z,2.92
2018-06-19T18:42:40.809Z,2.70
2018-06-19T18:45:09.607Z,2.90
2018-06-19T18:47:38.731Z,3.00
2018-06-19T18:50:07.309Z,3.05
2018-06-19T18:52:36.529Z,3.20
2018-06-19T18:55:05.402Z,3.20
2018-06-19T18:57:33.976Z,3.40
2018-06-19T19:00:02.506Z,3.30
2018-06-19T19:02:31.060Z,3.17
2018-06-19T19:04:59.625Z,3.10
2018-06-19T19:07:28.726Z,3.30
2018-06-19T19:10:02.387Z,3.37
2018-06-19T19:12:30.991Z,2.73
2018-06-19T19:15:04.847Z,3.40
2018-06-19T19:17:38.729Z,3.30
2018-06-19T19:20:07.310Z,3.00
2018-06-19T19:22:35.853Z,3.50
2018-06-19T19:25:04.453Z,3.33
2018-06-19T19:27:38.271Z,2.30
2018-06-19T19:30:06.853Z,3.80
2018-06-19T19:32:35.417Z,3.60
2018-06-19T19:35:04.073Z,2.80
2018-06-19T19:37:37.929Z,3.97
2018-06-19T19:40:06.539Z,2.93
2018-06-19T19:42:35.206Z,2.90
2018-06-19T19:45:03.824Z,3.57
2018-06-19T19:47:37.566Z,2.30
2018-06-19T19:50:06.359Z,3.43
2018-06-19T19:52:34.887Z,2.97
2018-06-19T19:55:04.394Z,3.27
2018-06-19T19:57:38.130Z,3.13
2018-06-19T20:00:08.837Z,2.20
2018-06-19T20:02:38.893Z,3.70
2018-06-19T20:05:07.475Z,3.67
2018-06-19T20:07:36.046Z,3.13
2018-06-19T20:10:04.642Z,3.43
2018-06-19T20:12:33.831Z,2.37
2018-06-19T20:15:03.040Z,2.77
2018-06-19T20:17:31.631Z,2.20
2018-06-19T20:20:00.129Z,1.70
2018-06-19T20:22:28.686Z,2.77
2018-06-19T20:24:57.193Z,2.70
2018-06-19T20:27:25.817Z,3.17
2018-06-19T20:29:54.645Z,1.67
2018-06-19T20:32:23.199Z,2.90
2018-06-19T20:34:51.803Z,2.10
2018-06-19T20:37:20.932Z,2.90
2018-06-19T20:39:49.472Z,2.80
2018-06-19T20:42:19.603Z,2.83
2018-06-19T20:44:48.433Z,2.90
2018-06-19T20:47:16.927Z,1.50
2018-06-19T20:49:46.246Z,2.90
2018-06-19T20:52:15.627Z,2.97
2018-06-19T20:54:45.181Z,2.00
2018-06-19T20:57:13.870Z,2.07
2018-06-19T20:59:43.111Z,2.37
2018-06-19T21:02:11.812Z,1.83
2018-06-19T21:04:40.977Z,2.20
2018-06-19T21:07:09.643Z,2.17
2018-06-19T21:09:39.040Z,1.80
2018-06-19T21:12:07.866Z,1.10
2018-06-19T21:14:36.462Z,1.53
2018-06-19T21:17:05.100Z,1.20
2018-06-19T21:19:33.637Z,1.53
2018-06-19T21:22:02.210Z,1.47
2018-06-19T21:24:30.738Z,1.90
2018-06-19T21:26:59.280Z,1.63
2018-06-19T21:29:27.772Z,1.40
2018-06-19T21:31:56.455Z,1.73
2018-06-19T21:34:25.104Z,2.93
2018-06-19T21:36:53.616Z,3.10
2018-06-19T21:39:22.534Z,1.73
2018-06-19T21:41:51.028Z,2.10
2018-06-19T21:44:19.564Z,1.47
2018-06-19T21:46:48.810Z,1.77
2018-06-19T21:49:17.332Z,1.60
2018-06-19T21:51:47.217Z,1.20
2018-06-19T21:54:16.077Z,1.57
2018-06-19T21:56:44.702Z,1.50
2018-06-19T21:59:13.239Z,1.43
2018-06-19T22:01:41.843Z,1.50
2018-06-19T22:04:10.466Z,1.60
2018-06-19T22:06:39.007Z,1.30
2018-06-19T22:09:07.594Z,1.50
2018-06-19T22:11:36.151Z,2.20
2018-06-19T22:14:05.282Z,2.13
2018-06-19T22:16:34.169Z,1.43
2018-06-19T22:19:02.781Z,1.70
2018-06-19T22:21:31.313Z,2.13
2018-06-19T22:23:59.877Z,2.00
2018-06-19T22:26:28.444Z,1.53
2018-06-19T22:28:56.936Z,1.40
2018-06-19T22:31:25.523Z,1.67
2018-06-19T22:33:54.029Z,1.43
2018-06-19T22:36:22.546Z,1.90
2018-06-19T22:38:51.040Z,1.77
2018-06-19T22:41:19.593Z,1.53
2018-06-19T22:43:48.142Z,2.33
2018-06-19T22:46:16.656Z,2.03
2018-06-19T22:48:45.394Z,1.60
2018-06-19T22:51:13.893Z,1.70
2018-06-19T22:53:43.066Z,1.17
2018-06-19T22:56:11.567Z,1.53
2018-06-19T22:58:40.055Z,1.87
2018-06-19T23:01:08.573Z,3.10
2018-06-19T23:03:37.086Z,3.70
2018-06-19T23:06:05.697Z,2.00
2018-06-19T23:08:34.581Z,2.17
2018-06-19T23:11:03.353Z,2.10
2018-06-19T23:13:31.775Z,2.00
2018-06-19T23:16:00.861Z,2.40
2018-06-19T23:18:29.993Z,1.87
2018-06-19T23:20:58.474Z,3.27
2018-06-19T23:23:27.781Z,2.93
2018-06-19T23:25:56.280Z,2.40
2018-06-19T23:28:24.797Z,1.37
2018-06-19T23:30:53.328Z,1.60
2018-06-19T23:33:21.796Z,1.83
2018-06-19T23:35:50.363Z,3.27
2018-06-19T23:38:18.843Z,3.53
2018-06-19T23:40:47.351Z,3.07
2018-06-19T23:43:15.830Z,2.10
2018-06-19T23:45:45.097Z,2.97
2018-06-19T23:48:13.563Z,1.63
2018-06-19T23:50:42.135Z,2.30
2018-06-19T23:53:10.760Z,1.83
2018-06-19T23:55:39.708Z,2.33
2018-06-19T23:58:08.233Z,2.07
